Strona główna
METAR-TAF:

METAR-TAF

Lotnisko :

Defiance Memorial Airport

Defiance, Ohio, Stany Zjednoczone

Szerokość geograficzna: 41-20-11N, Długość geograficzna: 084-25-46W, wysokość: 215 m

Aktualna obserwacja pogody

Raport powstał 34 minut temu, godzina 12:53 UTC
Wiatr 9 kt od południowo-południowy wschód
Temperatura 1°C
Wilgotność 86%
Ciśnienie 1013 hPa
Widzialność: 9.7 km
Przerywane chmury na wysokości 800 ft
Zachmurzenie całkowite na wysokości 1300 ft
słaby deszcz, zamglenie

METAR: KDFI 181253Z AUTO 16009KT 6SM -RA BR BKN008 OVC013 01/M01 A2992 RMK AO2 RAB09FZRAE09 CIG 006V010 SLP139 P0005 I1000 T00111006 $

czas: 08:27 (13:27 UTC)


TAF: brakujący

Obserwacja i prognoza pogody dla ponad 4000 lotnisk (raport METAR i TAF).

Dostępne stacje oznaczono żółtymi i czerwonymi punktami na mapie.

Najedź kursorem aby zobaczyć nazwę stacji.

Kliknij aby zobaczyć obserwacje i prognozy pogody.

Aby zmienić mapę: kliknij na zielony przycisk z czarnym krzyżykiem, aby powiększyć; na zielony przycisk z myślnikiem, aby pomniejszyć; na zielone strzałki, aby przejść do map sąsiednich.


METAR-TAF: